This is the latest recevied weather packets stored in our database for station/object LKCS. If no packets are shown the sender has not sent any weather packets the latest 1 day(s).
| Time | Temp. | Humidity | Pressure | Rain* | Wind** | Luminosity | Snow |
|---|---|---|---|---|---|---|---|
| 1836273924 | 11.11° C | 81% | 1023 hPa | - | 0 m/s | - | - |
| 1778032994 | 12.22° C | 100% | 1007 hPa | - | 0.45 m/s, 0° | - | - |
| 1778031151 | 12.22° C | 100% | 1007 hPa | - | 0.89 m/s, 0° | - | - |
| 1778029386 | 12.22° C | 93% | 1007 hPa | - | 0.89 m/s, 0° | - | - |
| 1778027557 | 12.22° C | 93% | 1007 hPa | - | 0.45 m/s, 0° | - | - |
| 1778025769 | 12.22° C | 100% | 1007 hPa | - | 2.24 m/s, 290° | - | - |
| 1778023984 | 12.78° C | 93% | 1007 hPa | - | 2.24 m/s, 290° | - | - |
| 1778022186 | 13.89° C | 87% | 1007 hPa | - | 2.68 m/s, 290° | - | - |
| 1778020385 | 13.89° C | 93% | 1007 hPa | - | 2.24 m/s, 330° | - | - |
| 1778018570 | 13.89° C | 87% | 1007 hPa | - | 2.24 m/s, 350° | - | - |
| 1778018345 | 13.89° C | 87% | 1007 hPa | - | 2.24 m/s, 350° | - | - |
| 1778016785 | 15° C | 82% | 1007 hPa | - | 1.34 m/s, 270° | - | - |
| 1778014986 | 15° C | 82% | 1006 hPa | - | 0.89 m/s, 0° | - | - |
| 1778014692 | 15° C | 82% | 1006 hPa | - | 0.89 m/s, 0° | - | - |
| 1778013185 | 17.78° C | 59% | 1006 hPa | - | 5.36 m/s, 290° | - | - |
| 1778011387 | 18.89° C | 52% | 1005 hPa | - | 6.26 m/s, 270° | - | - |
| 1778011218 | 18.89° C | 52% | 1005 hPa | - | 6.26 m/s, 270° | - | - |
| 1778009585 | 17.78° C | 63% | 1004 hPa | - | 0.89 m/s, 0° | - | - |
| 1778007786 | 17.22° C | 63% | 1003 hPa | - | 0.89 m/s, 0° | - | - |
| 1778005958 | 18.89° C | 59% | 1003 hPa | - | 0.45 m/s, 0° | - | - |
| 1778004187 | 20° C | 56% | 1003 hPa | - | 0.45 m/s, 0° | - | - |
| 1778002384 | 20° C | 60% | 1003 hPa | - | 0.89 m/s, 0° | - | - |
| 1778000586 | 21.11° C | 49% | 1004 hPa | - | 0.89 m/s, 0° | - | - |
| 1777998785 | 21.11° C | 49% | 1004 hPa | - | 0.89 m/s, 0° | - | - |
| 1777996962 | 21.11° C | 49% | 1004 hPa | - | 1.34 m/s, 40° | - | - |
* Rain since midnight (hover to see other rain measurements)
** Current wind speed in m/s (hover to see current wind gust speed)